F/V Kefeleg Ar Mor — FGIK — position and weather

sailwx.info

Track history (hours):
 
Tides and Currents Weather Stations Pressure Air Temp Water Temp Dewpoint Dewpoint Depression Visibility Wind Speed Wind Dir Waves Ship Positions

F/V Kefeleg Ar Mor

Last reported at 2017-Nov-19 19:47 UTC. Time now 2017-Nov-22 18:38 UTC.
Position N 47°21' W 002°31'.

Length 20 m.

Type: Fishing. MMSI: 227852000.

Date/timePositionNaut miles runAvg speedWind from/ knotsBaromVisibWave heightAir tempDewpointWater temp
2017-Nov-19 19:47N 47°21' W 002°31'0 0.0
2017-Nov-19 19:29N 47°21' W 002°31'0 0.1
2017-Nov-19 19:00N 47°21' W 002°31'2 4.9
2017-Nov-19 18:30N 47°20' W 002°34'5 9.1
2017-Nov-19 18:00N 47°18' W 002°40'5 9.3
2017-Nov-19 17:30N 47°15' W 002°45'16 2.8
2017-Nov-19 11:33N 47°04' W 003°04'1 2.9
2017-Nov-19 11:12N 47°05' W 003°03'3 0.5
2017-Nov-19 05:01N 47°02' W 003°02'0 1.2
2017-Nov-19 05:00N 47°02' W 003°02'2 2.8
2017-Nov-19 04:12N 47°04' W 003°04'1 3.3
2017-Nov-19 03:46N 47°06' W 003°04'2 2.1
2017-Nov-19 02:53N 47°04' W 003°02'1 3.2
2017-Nov-19 02:30N 47°03' W 003°02'4 3.2
2017-Nov-19 01:19N 46°60' W 002°59'1 1.6
2017-Nov-19 00:59N 46°59' W 002°59'1 2.3
2017-Nov-19 00:28N 46°60' W 002°58'3 2.1
2017-Nov-18 23:16N 46°57' W 002°58'1 3.2
2017-Nov-18 22:58N 46°58' W 002°59'2 3.1
2017-Nov-18 22:28N 46°59' W 003°01'2 3.0
2017-Nov-18 21:58N 47°00' W 003°02'2 0.5
2017-Nov-18 18:40N 46°59' W 003°01'0 0.1
2017-Nov-18 16:03N 46°59' W 003°01'2 3.3
2017-Nov-18 15:33N 47°00' W 003°02'0 3.3
2017-Nov-18 15:29N 47°00' W 003°02'2 3.2
2017-Nov-18 14:59N 47°02' W 003°03'1 0.2
2017-Nov-18 09:34N 47°01' W 003°04'0 2.5
2017-Nov-18 09:30N 47°01' W 003°03'1 1.5
2017-Nov-18 08:54N 47°01' W 003°02'1 3.0
2017-Nov-18 08:31N 47°02' W 003°03'2 3.0
2017-Nov-18 07:53N 47°04' W 003°04'2 3.0
2017-Nov-18 07:11N 47°06' W 003°04'1 3.5
2017-Nov-18 06:49N 47°07' W 003°03'2 3.6
2017-Nov-18 06:13N 47°08' W 002°60'1 2.6
2017-Nov-18 06:00N 47°09' W 002°59'4 7.4
2017-Nov-18 05:30N 47°11' W 002°55'5 9.4
2017-Nov-18 05:01N 47°14' W 002°50'6 9.2
2017-Nov-18 04:21N 47°17' W 002°43'3 8.9
2017-Nov-18 04:00N 47°19' W 002°39'5 9.2
2017-Nov-18 03:30N 47°20' W 002°32'1 0.1
2017-Nov-17 08:00N 47°21' W 002°31'1 0.1
2017-Nov-16 18:07N 47°20' W 002°32'1 9.6
2017-Nov-16 18:00N 47°19' W 002°33'5 9.4
2017-Nov-16 17:30N 47°16' W 002°37'5 9.0
2017-Nov-16 16:56N 47°13' W 002°43'4 9.5
2017-Nov-16 16:30N 47°10' W 002°48'4 5.3
2017-Nov-16 15:47N 47°09' W 002°53'1 3.0
2017-Nov-16 15:31N 47°08' W 002°54'2 3.3
2017-Nov-16 15:00N 47°07' W 002°56'2 2.9
2017-Nov-16 14:13N 47°06' W 002°59'1 4.5
2017-Nov-16 14:01N 47°05' W 003°00'1 2.3
2017-Nov-16 13:30N 47°04' W 003°00'2 3.4
2017-Nov-16 13:01N 47°03' W 003°01'1 2.1
2017-Nov-16 12:31N 47°03' W 003°03'2 3.2
2017-Nov-16 12:00N 47°04' W 003°03'2 3.1
2017-Nov-16 11:31N 47°06' W 003°02'1 1.7
2017-Nov-16 11:00N 47°07' W 003°02'2 2.9
2017-Nov-16 10:26N 47°05' W 003°01'3 3.2
2017-Nov-16 09:35N 47°02' W 003°01'1 3.5
2017-Nov-16 09:19N 47°01' W 003°01'1 2.7
2017-Nov-16 09:00N 47°01' W 003°02'2 3.0
2017-Nov-16 08:30N 47°03' W 003°03'1 2.8
2017-Nov-16 08:00N 47°04' W 003°02'2 1.4
2017-Nov-16 06:19N 47°02' W 003°03'1 3.1
2017-Nov-16 05:56N 47°03' W 003°03'2 3.1
2017-Nov-16 05:26N 47°04' W 003°04'2 3.9
2017-Nov-16 05:00N 47°06' W 003°04'0 0.7
2017-Nov-16 04:29N 47°06' W 003°03'2 3.2
2017-Nov-16 03:47N 47°04' W 003°02'1 3.2
2017-Nov-16 03:28N 47°03' W 003°02'1 3.2
2017-Nov-16 03:00N 47°02' W 003°01'1 2.1
2017-Nov-16 02:30N 47°01' W 003°02'2 2.9
2017-Nov-16 01:57N 47°03' W 003°03'1 3.1
2017-Nov-16 01:30N 47°04' W 003°03'1 2.7
2017-Nov-16 01:00N 47°05' W 003°03'1 2.1
2017-Nov-16 00:30N 47°06' W 003°03'1 2.9
2017-Nov-16 00:00N 47°08' W 003°03'1 2.7
2017-Nov-15 23:31N 47°08' W 003°01'2 2.9
2017-Nov-15 22:57N 47°07' W 003°00'1 3.3
2017-Nov-15 22:30N 47°05' W 003°00'2 3.3
2017-Nov-15 21:49N 47°03' W 002°60'1 3.4
2017-Nov-15 21:28N 47°02' W 002°59'1 1.9
2017-Nov-15 21:00N 47°03' W 003°00'2 3.1
2017-Nov-15 20:30N 47°04' W 003°01'2 3.1
2017-Nov-15 20:00N 47°05' W 003°03'2 3.0
2017-Nov-15 19:30N 47°06' W 003°04'1 2.7
2017-Nov-15 18:59N 47°08' W 003°03'2 3.2
2017-Nov-15 18:16N 47°05' W 003°02'0 1.6
2017-Nov-15 17:58N 47°05' W 003°02'4 2.4
2017-Nov-15 16:29N 47°01' W 003°02'2 3.1
2017-Nov-15 15:57N 47°03' W 003°03'2 3.1
2017-Nov-15 15:21N 47°04' W 003°04'1 2.1
2017-Nov-15 14:48N 47°05' W 003°05'1 0.2
2017-Nov-15 09:40N 47°06' W 003°03'1 3.2
2017-Nov-15 09:29N 47°05' W 003°03'2 3.2
2017-Nov-15 09:00N 47°04' W 003°02'2 3.2
2017-Nov-15 08:23N 47°02' W 003°01'1 2.2
2017-Nov-15 07:57N 47°01' W 003°02'1 3.1
2017-Nov-15 07:29N 47°03' W 003°03'2 3.2
2017-Nov-15 07:00N 47°04' W 003°04'2 3.2
2017-Nov-15 06:29N 47°06' W 003°04'1 2.0
2017-Nov-15 06:00N 47°07' W 003°04'2 3.1
2017-Nov-15 05:24N 47°08' W 003°02'1 3.5
2017-Nov-15 05:00N 47°08' W 003°00'2 3.5
2017-Nov-15 04:30N 47°09' W 002°58'2 3.6
2017-Nov-15 04:00N 47°10' W 002°56'2 3.5
2017-Nov-15 03:28N 47°11' W 002°54'2 3.4
2017-Nov-15 02:59N 47°12' W 002°52'1 3.1
2017-Nov-15 02:30N 47°13' W 002°50'1 1.4
2017-Nov-15 01:56N 47°14' W 002°49'3 7.7
2017-Nov-15 01:29N 47°16' W 002°45'4 8.5
2017-Nov-15 01:00N 47°18' W 002°40'4 8.3
2017-Nov-15 00:30N 47°20' W 002°35'3 5.3
2017-Nov-15 00:00N 47°21' W 002°31'0 0.0
2017-Nov-14 23:30N 47°21' W 002°31'0 0.0
2017-Nov-14 22:54N 47°21' W 002°31'0 1.2
2017-Nov-14 22:30N 47°20' W 002°31'5 9.9
2017-Nov-14 22:00N 47°19' W 002°38'610.0
2017-Nov-14 21:24N 47°15' W 002°45'16 1.6
2017-Nov-14 11:02N 47°06' W 003°05'1 2.4
2017-Nov-14 10:39N 47°07' W 003°05'1 2.9
2017-Nov-14 10:25N 47°07' W 003°05'6 2.5
2017-Nov-14 08:08N 47°02' W 003°02'0 1.1
2017-Nov-14 07:59N 47°02' W 003°02'1 2.3
2017-Nov-14 07:30N 47°03' W 003°03'3 3.0
2017-Nov-14 06:19N 47°06' W 003°05'1 3.1
2017-Nov-14 06:00N 47°07' W 003°06'6 1.9
2017-Nov-14 02:35N 47°01' W 003°02'0 3.0
2017-Nov-14 02:26N 47°01' W 003°02'4 3.1
2017-Nov-14 01:08N 47°05' W 003°05'0 3.3
2017-Nov-14 01:00N 47°05' W 003°05'1 2.1
2017-Nov-14 00:29N 47°07' W 003°05'2 2.5
2017-Nov-13 23:49N 47°08' W 003°04'26 0.9
2017-Nov-12 19:10N 47°21' W 002°31'2 8.0
2017-Nov-12 18:59N 47°20' W 002°33'4 9.1
2017-Nov-12 18:30N 47°19' W 002°39'5 8.9
2017-Nov-12 18:00N 47°16' W 002°44'18 0.6
2017-Nov-11 12:00N 47°07' W 003°06'15 2.5
2017-Nov-11 06:17N 47°15' W 002°49'3 7.3
2017-Nov-11 05:56N 47°16' W 002°46'3 7.5
2017-Nov-11 05:28N 47°18' W 002°41'4 7.3
2017-Nov-11 04:58N 47°19' W 002°36'3 7.4
2017-Nov-11 04:30N 47°21' W 002°31'0 0.0
2017-Nov-10 11:26N 47°21' W 002°31'1 2.6
2017-Nov-10 11:00N 47°20' W 002°32'1 2.2
2017-Nov-10 10:25N 47°21' W 002°31'2 3.8
2017-Nov-10 09:53N 47°19' W 002°33'0 0.7
2017-Nov-10 09:26N 47°20' W 002°33'2 3.7
2017-Nov-10 09:00N 47°21' W 002°31'0 0.0
2017-Nov-09 20:35N 47°21' W 002°31'0 0.0
2017-Nov-09 20:28N 47°21' W 002°31'0 0.0
2017-Nov-09 19:57N 47°21' W 002°31'  
Track history (hours):
 
Tides and Currents Weather Stations Pressure Air Temp Water Temp Dewpoint Dewpoint Depression Visibility Wind Speed Wind Dir Waves Ship Positions

F/V Kefeleg Ar Mor

Last reported at 2017-Nov-19 19:47 UTC. Time now 2017-Nov-22 18:38 UTC.
Position N 47°21' W 002°31'.

Length 20 m.

Type: Fishing. MMSI: 227852000.

Date/timePositionNaut miles runAvg speedWind from/ knotsBaromVisibWave heightAir tempDewpointWater temp
2017-Nov-19 19:47N 47°21' W 002°31'0 0.0
2017-Nov-19 19:29N 47°21' W 002°31'0 0.1
2017-Nov-19 19:00N 47°21' W 002°31'2 4.9
2017-Nov-19 18:30N 47°20' W 002°34'5 9.1
2017-Nov-19 18:00N 47°18' W 002°40'5 9.3
2017-Nov-19 17:30N 47°15' W 002°45'16 2.8
2017-Nov-19 11:33N 47°04' W 003°04'1 2.9
2017-Nov-19 11:12N 47°05' W 003°03'3 0.5
2017-Nov-19 05:01N 47°02' W 003°02'0 1.2
2017-Nov-19 05:00N 47°02' W 003°02'2 2.8
2017-Nov-19 04:12N 47°04' W 003°04'1 3.3
2017-Nov-19 03:46N 47°06' W 003°04'2 2.1
2017-Nov-19 02:53N 47°04' W 003°02'1 3.2
2017-Nov-19 02:30N 47°03' W 003°02'4 3.2
2017-Nov-19 01:19N 46°60' W 002°59'1 1.6
2017-Nov-19 00:59N 46°59' W 002°59'1 2.3
2017-Nov-19 00:28N 46°60' W 002°58'3 2.1
2017-Nov-18 23:16N 46°57' W 002°58'1 3.2
2017-Nov-18 22:58N 46°58' W 002°59'2 3.1
2017-Nov-18 22:28N 46°59' W 003°01'2 3.0
2017-Nov-18 21:58N 47°00' W 003°02'2 0.5
2017-Nov-18 18:40N 46°59' W 003°01'0 0.1
2017-Nov-18 16:03N 46°59' W 003°01'2 3.3
2017-Nov-18 15:33N 47°00' W 003°02'0 3.3
2017-Nov-18 15:29N 47°00' W 003°02'2 3.2
2017-Nov-18 14:59N 47°02' W 003°03'1 0.2
2017-Nov-18 09:34N 47°01' W 003°04'0 2.5
2017-Nov-18 09:30N 47°01' W 003°03'1 1.5
2017-Nov-18 08:54N 47°01' W 003°02'1 3.0
2017-Nov-18 08:31N 47°02' W 003°03'2 3.0
2017-Nov-18 07:53N 47°04' W 003°04'2 3.0
2017-Nov-18 07:11N 47°06' W 003°04'1 3.5
2017-Nov-18 06:49N 47°07' W 003°03'2 3.6
2017-Nov-18 06:13N 47°08' W 002°60'1 2.6
2017-Nov-18 06:00N 47°09' W 002°59'4 7.4
2017-Nov-18 05:30N 47°11' W 002°55'5 9.4
2017-Nov-18 05:01N 47°14' W 002°50'6 9.2
2017-Nov-18 04:21N 47°17' W 002°43'3 8.9
2017-Nov-18 04:00N 47°19' W 002°39'5 9.2
2017-Nov-18 03:30N 47°20' W 002°32'1 0.1
2017-Nov-17 08:00N 47°21' W 002°31'1 0.1
2017-Nov-16 18:07N 47°20' W 002°32'1 9.6
2017-Nov-16 18:00N 47°19' W 002°33'5 9.4
2017-Nov-16 17:30N 47°16' W 002°37'5 9.0
2017-Nov-16 16:56N 47°13' W 002°43'4 9.5
2017-Nov-16 16:30N 47°10' W 002°48'4 5.3
2017-Nov-16 15:47N 47°09' W 002°53'1 3.0
2017-Nov-16 15:31N 47°08' W 002°54'2 3.3
2017-Nov-16 15:00N 47°07' W 002°56'2 2.9
2017-Nov-16 14:13N 47°06' W 002°59'1 4.5
2017-Nov-16 14:01N 47°05' W 003°00'1 2.3
2017-Nov-16 13:30N 47°04' W 003°00'2 3.4
2017-Nov-16 13:01N 47°03' W 003°01'1 2.1
2017-Nov-16 12:31N 47°03' W 003°03'2 3.2
2017-Nov-16 12:00N 47°04' W 003°03'2 3.1
2017-Nov-16 11:31N 47°06' W 003°02'1 1.7
2017-Nov-16 11:00N 47°07' W 003°02'2 2.9
2017-Nov-16 10:26N 47°05' W 003°01'3 3.2
2017-Nov-16 09:35N 47°02' W 003°01'1 3.5
2017-Nov-16 09:19N 47°01' W 003°01'1 2.7
2017-Nov-16 09:00N 47°01' W 003°02'2 3.0
2017-Nov-16 08:30N 47°03' W 003°03'1 2.8
2017-Nov-16 08:00N 47°04' W 003°02'2 1.4
2017-Nov-16 06:19N 47°02' W 003°03'1 3.1
2017-Nov-16 05:56N 47°03' W 003°03'2 3.1
2017-Nov-16 05:26N 47°04' W 003°04'2 3.9
2017-Nov-16 05:00N 47°06' W 003°04'0 0.7
2017-Nov-16 04:29N 47°06' W 003°03'2 3.2
2017-Nov-16 03:47N 47°04' W 003°02'1 3.2
2017-Nov-16 03:28N 47°03' W 003°02'1 3.2
2017-Nov-16 03:00N 47°02' W 003°01'1 2.1
2017-Nov-16 02:30N 47°01' W 003°02'2 2.9
2017-Nov-16 01:57N 47°03' W 003°03'1 3.1
2017-Nov-16 01:30N 47°04' W 003°03'1 2.7
2017-Nov-16 01:00N 47°05' W 003°03'1 2.1
2017-Nov-16 00:30N 47°06' W 003°03'1 2.9
2017-Nov-16 00:00N 47°08' W 003°03'1 2.7
2017-Nov-15 23:31N 47°08' W 003°01'2 2.9
2017-Nov-15 22:57N 47°07' W 003°00'1 3.3
2017-Nov-15 22:30N 47°05' W 003°00'2 3.3
2017-Nov-15 21:49N 47°03' W 002°60'1 3.4
2017-Nov-15 21:28N 47°02' W 002°59'1 1.9
2017-Nov-15 21:00N 47°03' W 003°00'2 3.1
2017-Nov-15 20:30N 47°04' W 003°01'2 3.1
2017-Nov-15 20:00N 47°05' W 003°03'2 3.0
2017-Nov-15 19:30N 47°06' W 003°04'1 2.7
2017-Nov-15 18:59N 47°08' W 003°03'2 3.2
2017-Nov-15 18:16N 47°05' W 003°02'0 1.6
2017-Nov-15 17:58N 47°05' W 003°02'4 2.4
2017-Nov-15 16:29N 47°01' W 003°02'2 3.1
2017-Nov-15 15:57N 47°03' W 003°03'2 3.1
2017-Nov-15 15:21N 47°04' W 003°04'1 2.1
2017-Nov-15 14:48N 47°05' W 003°05'1 0.2
2017-Nov-15 09:40N 47°06' W 003°03'1 3.2
2017-Nov-15 09:29N 47°05' W 003°03'2 3.2
2017-Nov-15 09:00N 47°04' W 003°02'2 3.2
2017-Nov-15 08:23N 47°02' W 003°01'1 2.2
2017-Nov-15 07:57N 47°01' W 003°02'1 3.1
2017-Nov-15 07:29N 47°03' W 003°03'2 3.2
2017-Nov-15 07:00N 47°04' W 003°04'2 3.2
2017-Nov-15 06:29N 47°06' W 003°04'1 2.0
2017-Nov-15 06:00N 47°07' W 003°04'2 3.1
2017-Nov-15 05:24N 47°08' W 003°02'1 3.5
2017-Nov-15 05:00N 47°08' W 003°00'2 3.5
2017-Nov-15 04:30N 47°09' W 002°58'2 3.6
2017-Nov-15 04:00N 47°10' W 002°56'2 3.5
2017-Nov-15 03:28N 47°11' W 002°54'2 3.4
2017-Nov-15 02:59N 47°12' W 002°52'1 3.1
2017-Nov-15 02:30N 47°13' W 002°50'1 1.4
2017-Nov-15 01:56N 47°14' W 002°49'3 7.7
2017-Nov-15 01:29N 47°16' W 002°45'4 8.5
2017-Nov-15 01:00N 47°18' W 002°40'4 8.3
2017-Nov-15 00:30N 47°20' W 002°35'3 5.3
2017-Nov-15 00:00N 47°21' W 002°31'0 0.0
2017-Nov-14 23:30N 47°21' W 002°31'0 0.0
2017-Nov-14 22:54N 47°21' W 002°31'0 1.2
2017-Nov-14 22:30N 47°20' W 002°31'5 9.9
2017-Nov-14 22:00N 47°19' W 002°38'610.0
2017-Nov-14 21:24N 47°15' W 002°45'16 1.6
2017-Nov-14 11:02N 47°06' W 003°05'1 2.4
2017-Nov-14 10:39N 47°07' W 003°05'1 2.9
2017-Nov-14 10:25N 47°07' W 003°05'6 2.5
2017-Nov-14 08:08N 47°02' W 003°02'0 1.1
2017-Nov-14 07:59N 47°02' W 003°02'1 2.3
2017-Nov-14 07:30N 47°03' W 003°03'3 3.0
2017-Nov-14 06:19N 47°06' W 003°05'1 3.1
2017-Nov-14 06:00N 47°07' W 003°06'6 1.9
2017-Nov-14 02:35N 47°01' W 003°02'0 3.0
2017-Nov-14 02:26N 47°01' W 003°02'4 3.1
2017-Nov-14 01:08N 47°05' W 003°05'0 3.3
2017-Nov-14 01:00N 47°05' W 003°05'1 2.1
2017-Nov-14 00:29N 47°07' W 003°05'2 2.5
2017-Nov-13 23:49N 47°08' W 003°04'26 0.9
2017-Nov-12 19:10N 47°21' W 002°31'2 8.0
2017-Nov-12 18:59N 47°20' W 002°33'4 9.1
2017-Nov-12 18:30N 47°19' W 002°39'5 8.9
2017-Nov-12 18:00N 47°16' W 002°44'18 0.6
2017-Nov-11 12:00N 47°07' W 003°06'15 2.5
2017-Nov-11 06:17N 47°15' W 002°49'3 7.3
2017-Nov-11 05:56N 47°16' W 002°46'3 7.5
2017-Nov-11 05:28N 47°18' W 002°41'4 7.3
2017-Nov-11 04:58N 47°19' W 002°36'3 7.4
2017-Nov-11 04:30N 47°21' W 002°31'0 0.0
2017-Nov-10 11:26N 47°21' W 002°31'1 2.6
2017-Nov-10 11:00N 47°20' W 002°32'1 2.2
2017-Nov-10 10:25N 47°21' W 002°31'2 3.8
2017-Nov-10 09:53N 47°19' W 002°33'0 0.7
2017-Nov-10 09:26N 47°20' W 002°33'2 3.7
2017-Nov-10 09:00N 47°21' W 002°31'0 0.0
2017-Nov-09 20:35N 47°21' W 002°31'0 0.0
2017-Nov-09 20:28N 47°21' W 002°31'0 0.0
2017-Nov-09 19:57N 47°21' W 002°31'  

Dump ship's entire track history